Time;durP1;ratioP1;P1;durP2;ratioP2;P2;SDS_P1;SDS_P2;PMS_P1;PMS_P2;Temp;Humidity;BMP_temperature;BMP_pressure;BME280_temperature;BME280_humidity;BME280_pressure;Samples;Min_cycle;Max_cycle;Signal;HPM_P1;HPM_P2
2023/11/11 00:00:41;;;;;;;25.42;15.10;;;;;;;8.92;78.70;99004.91;5113259;28;20443;-39
2023/11/11 00:03:06;;;;;;;28.33;15.80;;;;;;;9.32;77.80;99025.97;5112903;28;20410;-40
2023/11/11 00:05:33;;;;;;;27.40;15.07;;;;;;;9.65;77.20;99024.94;5112625;28;20016;-40
2023/11/11 00:07:59;;;;;;;28.88;16.85;;;;;;;9.43;77.09;99021.03;5112237;28;20471;-40
2023/11/11 00:10:25;;;;;;;28.23;16.38;;;;;;;9.37;77.83;99010.22;5112715;28;20141;-39
2023/11/11 00:12:51;;;;;;;28.15;16.70;;;;;;;9.33;78.84;99016.97;5112676;28;20138;-40
2023/11/11 00:15:17;;;;;;;30.30;16.92;;;;;;;9.40;77.98;99019.59;5112539;28;20061;-39
2023/11/11 00:17:43;;;;;;;30.08;16.50;;;;;;;9.82;74.67;99008.47;5112251;28;20019;-38
2023/11/11 00:20:13;;;;;;;28.65;16.55;;;;;;;9.74;74.81;99006.91;5112631;28;20019;-40
2023/11/11 00:22:41;;;;;;;30.10;15.98;;;;;;;9.61;75.99;99013.13;5112401;28;20051;-40
2023/11/11 00:25:07;;;;;;;28.83;15.20;;;;;;;9.39;77.70;99007.34;5112132;28;20026;-40
2023/11/11 00:27:33;;;;;;;27.15;15.68;;;;;;;9.48;76.45;98984.81;5112696;28;20399;-39
2023/11/11 00:30:00;;;;;;;28.33;16.20;;;;;;;9.42;76.36;98966.25;5112139;28;20023;-40
2023/11/11 00:32:25;;;;;;;29.52;16.33;;;;;;;9.58;75.99;98963.91;5112342;28;20031;-37
2023/11/11 00:34:52;;;;;;;30.52;16.25;;;;;;;9.89;74.91;98956.91;5112142;28;20024;-40
2023/11/11 00:37:19;;;;;;;30.30;15.90;;;;;;;9.90;74.62;98966.50;5112133;28;20016;-40
2023/11/11 00:39:46;;;;;;;31.05;15.30;;;;;;;9.93;74.50;98954.63;5112103;28;20160;-40
2023/11/11 00:42:14;;;;;;;28.85;16.25;;;;;;;9.77;74.59;98937.41;5112296;28;20024;-40
2023/11/11 00:44:44;;;;;;;27.75;15.45;;;;;;;10.06;73.69;98930.56;5111692;28;20065;-41
2023/11/11 00:47:11;;;;;;;33.95;16.98;;;;;;;10.11;73.13;98930.75;5111986;28;20056;-40
2023/11/11 00:49:37;;;;;;;29.10;16.17;;;;;;;9.84;73.33;98905.44;5112017;28;20039;-40
2023/11/11 00:52:03;;;;;;;30.77;16.73;;;;;;;9.70;73.75;98905.56;5111817;28;20027;-40
2023/11/11 00:54:30;;;;;;;29.02;15.95;;;;;;;9.46;75.50;98917.81;5112035;28;20030;-40
2023/11/11 00:56:56;;;;;;;31.63;16.70;;;;;;;9.67;75.79;98937.88;5111701;28;20029;-40
2023/11/11 00:59:22;;;;;;;32.97;16.20;;;;;;;9.67;75.19;98945.03;5111778;28;20049;-41
2023/11/11 01:01:47;;;;;;;26.85;15.25;;;;;;;9.51;75.52;98935.75;5111586;28;20124;-40
2023/11/11 01:04:13;;;;;;;28.80;15.32;;;;;;;9.68;75.12;98936.03;5111694;28;20031;-38
2023/11/11 01:06:38;;;;;;;31.63;16.45;;;;;;;9.79;73.75;98922.84;5111567;28;20026;-40
2023/11/11 01:09:04;;;;;;;32.28;16.05;;;;;;;9.55;73.69;98903.22;5111355;28;20092;-40
2023/11/11 01:11:29;;;;;;;30.50;16.48;;;;;;;9.25;76.05;98910.22;5111516;28;20369;-40
2023/11/11 01:13:55;;;;;;;30.30;15.48;;;;;;;9.06;77.24;98896.03;5111435;28;20059;-40
2023/11/11 01:16:20;;;;;;;29.42;16.08;;;;;;;8.94;77.73;98902.03;5111607;28;20023;-40
2023/11/11 01:18:46;;;;;;;30.85;15.30;;;;;;;8.80;79.13;98897.84;5111529;28;20467;-40
2023/11/11 01:21:12;;;;;;;27.23;16.33;;;;;;;8.80;79.43;98895.19;5111469;28;20051;-40
2023/11/11 01:23:38;;;;;;;28.70;16.52;;;;;;;8.75;80.02;98911.72;5111381;28;20070;-40
2023/11/11 01:26:04;;;;;;;30.95;16.63;;;;;;;8.72;80.30;98888.28;5111693;28;20020;-40
2023/11/11 01:28:30;;;;;;;34.90;18.17;;;;;;;8.75;80.08;98879.06;5111135;28;20122;-39
2023/11/11 01:30:56;;;;;;;30.27;16.92;;;;;;;8.57;80.48;98888.56;5111369;28;20099;-40
2023/11/11 01:33:22;;;;;;;30.25;17.48;;;;;;;8.63;80.91;98884.25;5111623;28;20046;-37
2023/11/11 01:35:51;;;;;;;30.58;16.95;;;;;;;8.71;80.39;98909.72;5111685;28;20503;-38
2023/11/11 01:38:20;;;;;;;30.05;16.40;;;;;;;8.53;81.16;98907.72;5115573;28;20491;-38
2023/11/11 01:40:46;;;;;;;34.55;17.88;;;;;;;8.75;80.92;98892.34;5115327;28;20460;-39
2023/11/11 01:43:15;;;;;;;32.25;17.48;;;;;;;8.70;80.66;98905.41;5115488;28;20118;-39
2023/11/11 01:45:44;;;;;;;30.02;17.33;;;;;;;8.43;81.95;98892.28;5115300;28;20058;-40
2023/11/11 01:48:13;;;;;;;32.00;17.70;;;;;;;8.53;82.00;98915.69;5115114;28;20089;-40
2023/11/11 01:50:42;;;;;;;31.98;16.88;;;;;;;8.39;82.01;98906.94;5115120;28;20027;-40
2023/11/11 01:53:10;;;;;;;30.35;16.67;;;;;;;8.56;81.93;98889.56;5115405;28;20042;-39
2023/11/11 01:55:36;;;;;;;30.17;16.02;;;;;;;8.46;81.51;98891.06;5115264;28;20194;-38
2023/11/11 01:58:02;;;;;;;33.20;18.00;;;;;;;8.32;82.91;98891.06;5115283;28;20577;-39
2023/11/11 02:00:35;;;;;;;30.13;17.50;;;;;;;8.36;82.79;98886.16;5115084;28;20032;-38
2023/11/11 02:03:01;;;;;;;29.55;17.17;;;;;;;8.48;80.89;98903.06;5114972;28;20038;-39
2023/11/11 02:05:27;;;;;;;30.98;17.13;;;;;;;8.13;83.18;98876.03;5115094;28;20024;-36
2023/11/11 02:07:52;;;;;;;32.88;17.27;;;;;;;8.28;83.42;98878.44;5114902;28;20026;-39
2023/11/11 02:10:19;;;;;;;31.17;17.98;;;;;;;8.00;83.40;98880.34;5114998;28;20023;-37
2023/11/11 02:12:44;;;;;;;32.15;18.20;;;;;;;8.13;82.73;98860.13;5114896;28;20046;-39
2023/11/11 02:15:10;;;;;;;30.33;16.35;;;;;;;8.09;83.10;98880.97;5114585;28;20537;-39
2023/11/11 02:17:36;;;;;;;32.92;17.90;;;;;;;8.01;83.73;98854.66;5114448;28;20031;-39
2023/11/11 02:20:02;;;;;;;32.78;18.45;;;;;;;7.98;84.16;98868.34;5114220;28;20024;-39
2023/11/11 02:22:28;;;;;;;33.53;18.67;;;;;;;7.80;84.37;98850.44;5114867;28;20110;-40
2023/11/11 02:24:56;;;;;;;32.80;18.83;;;;;;;8.02;84.74;98854.47;5114831;28;20103;-39
2023/11/11 02:27:22;;;;;;;35.05;19.02;;;;;;;7.78;84.79;98857.78;5114634;28;20115;-37
2023/11/11 02:29:47;;;;;;;32.83;17.92;;;;;;;7.91;84.10;98872.84;5114381;28;20107;-40
2023/11/11 02:32:12;;;;;;;33.90;18.13;;;;;;;7.85;83.68;98871.03;5114274;28;20023;-39
2023/11/11 02:34:38;;;;;;;31.27;18.27;;;;;;;7.79;84.77;98875.31;5114596;28;20039;-40
2023/11/11 02:37:04;;;;;;;32.17;17.92;;;;;;;7.73;85.87;98881.41;5114335;28;20055;-38
2023/11/11 02:39:30;;;;;;;34.95;18.13;;;;;;;7.71;85.04;98873.69;5114465;28;20031;-39
2023/11/11 02:41:55;;;;;;;36.20;18.88;;;;;;;7.65;85.29;98863.91;5114494;28;20061;-39
2023/11/11 02:44:21;;;;;;;35.40;18.35;;;;;;;7.66;85.19;98878.78;5114604;28;20356;-26
2023/11/11 02:46:46;;;;;;;34.20;18.35;;;;;;;7.56;85.41;98865.16;5114066;28;20050;-26
2023/11/11 02:49:13;;;;;;;34.20;18.45;;;;;;;7.63;85.04;98858.84;5114266;28;20035;-27
2023/11/11 02:51:38;;;;;;;33.60;19.05;;;;;;;7.52;85.27;98854.16;5114521;28;20051;-26
2023/11/11 02:54:04;;;;;;;33.00;18.42;;;;;;;7.59;85.69;98854.16;5114491;28;20059;-40
2023/11/11 02:56:29;;;;;;;34.97;19.38;;;;;;;7.82;85.73;98854.53;5114090;28;20024;-40
2023/11/11 02:58:54;;;;;;;35.20;18.50;;;;;;;8.09;83.43;98843.88;5114235;28;20447;-40
2023/11/11 03:01:20;;;;;;;32.90;17.30;;;;;;;7.93;83.40;98839.81;5114093;28;20031;-39
2023/11/11 03:03:46;;;;;;;35.38;17.70;;;;;;;7.90;83.73;98847.34;5114136;28;20046;-41
2023/11/11 03:06:11;;;;;;;38.00;18.15;;;;;;;7.74;84.47;98832.75;5113888;28;20023;-41
2023/11/11 03:08:38;;;;;;;33.65;17.23;;;;;;;7.57;85.14;98853.53;5113984;28;20155;-40
2023/11/11 03:11:04;;;;;;;31.60;17.90;;;;;;;7.62;86.14;98865.16;5113913;28;20023;-40
2023/11/11 03:13:30;;;;;;;34.17;17.77;;;;;;;7.45;86.73;98863.94;5113499;28;20027;-38
2023/11/11 03:15:56;;;;;;;30.70;17.50;;;;;;;7.44;86.33;98863.13;5113093;28;20027;-39
2023/11/11 03:18:21;;;;;;;30.80;17.42;;;;;;;7.49;86.93;98877.59;5113615;28;20100;-40
2023/11/11 03:20:47;;;;;;;31.63;16.77;;;;;;;7.37;87.55;98872.91;5113594;28;20030;-37
2023/11/11 03:23:12;;;;;;;34.75;17.83;;;;;;;7.50;87.45;98852.72;5113687;28;20028;-39
2023/11/11 03:25:37;;;;;;;34.08;18.33;;;;;;;7.47;87.33;98837.25;5113542;28;20398;-39
2023/11/11 03:28:03;;;;;;;31.83;17.90;;;;;;;7.43;88.37;98835.03;5113542;28;20027;-41
2023/11/11 03:30:30;;;;;;;29.00;17.17;;;;;;;7.48;87.20;98830.94;5113743;28;20043;-38
2023/11/11 03:32:55;;;;;;;31.00;17.27;;;;;;;7.35;87.53;98821.16;5113778;28;20019;-39
2023/11/11 03:35:21;;;;;;;32.53;17.40;;;;;;;7.35;87.55;98819.34;5113405;28;20020;-39
2023/11/11 03:37:47;;;;;;;33.22;17.67;;;;;;;7.29;87.60;98796.38;5113162;28;20015;-39
2023/11/11 03:40:12;;;;;;;35.17;18.50;;;;;;;7.45;87.18;98803.06;5112816;28;20031;-39
2023/11/11 03:42:37;;;;;;;32.70;17.48;;;;;;;7.29;86.65;98784.94;5112964;28;20031;-39
2023/11/11 03:45:04;;;;;;;34.00;18.70;;;;;;;7.40;86.49;98787.78;5113088;28;20019;-39
2023/11/11 03:47:30;;;;;;;32.63;18.08;;;;;;;7.33;86.86;98778.22;5113035;28;20070;-39
2023/11/11 03:49:55;;;;;;;34.55;18.42;;;;;;;7.26;87.28;98766.84;5113162;28;20487;-41
2023/11/11 03:52:21;;;;;;;34.72;17.80;;;;;;;7.18;88.20;98759.94;5113130;28;20494;-39
2023/11/11 03:54:47;;;;;;;32.53;16.98;;;;;;;7.22;87.66;98754.00;5113059;28;20024;-41
2023/11/11 03:57:12;;;;;;;36.15;17.40;;;;;;;7.02;87.30;98722.28;5113061;28;20164;-40
2023/11/11 03:59:39;;;;;;;32.17;16.98;;;;;;;7.15;86.79;98758.50;5112323;28;20023;-39
2023/11/11 04:02:04;;;;;;;30.77;17.10;;;;;;;6.97;87.50;98763.63;5112486;28;20032;-39
2023/11/11 04:04:32;;;;;;;32.20;17.92;;;;;;;7.15;87.62;98755.03;5112399;28;20028;-39
2023/11/11 04:06:58;;;;;;;33.28;18.52;;;;;;;7.29;88.16;98761.97;5112328;28;20376;-37
2023/11/11 04:09:23;;;;;;;35.08;17.08;;;;;;;6.97;88.52;98756.47;5112821;28;20061;-36
2023/11/11 04:11:49;;;;;;;30.88;16.73;;;;;;;6.98;88.16;98757.28;5112542;28;20023;-38
2023/11/11 04:14:15;;;;;;;31.10;16.73;;;;;;;6.89;88.69;98769.09;5112657;28;20036;-39
2023/11/11 04:16:43;;;;;;;35.20;18.13;;;;;;;7.00;89.01;98765.84;5112471;28;20023;-39
2023/11/11 04:19:08;;;;;;;35.33;18.08;;;;;;;7.06;88.66;98754.44;5112387;28;20077;-39
2023/11/11 04:21:34;;;;;;;30.70;18.15;;;;;;;7.08;88.30;98764.81;5112545;28;20031;-39
2023/11/11 04:23:59;;;;;;;34.13;17.48;;;;;;;7.05;88.29;98772.13;5112456;28;20127;-38
2023/11/11 04:26:25;;;;;;;35.42;19.20;;;;;;;7.22;88.13;98771.72;5112140;28;20490;-36
2023/11/11 04:28:50;;;;;;;40.03;18.85;;;;;;;7.19;87.30;98774.78;5112096;28;20024;-36
2023/11/11 04:31:17;;;;;;;32.33;18.52;;;;;;;7.02;87.83;98771.72;5112084;28;20024;-39
2023/11/11 04:33:43;;;;;;;35.17;18.75;;;;;;;7.20;88.45;98771.13;5112321;28;20041;-38
2023/11/11 04:36:08;;;;;;;37.50;18.38;;;;;;;6.89;88.29;98774.38;5112275;28;20047;-38
2023/11/11 04:38:35;;;;;;;40.08;19.30;;;;;;;7.22;88.22;98788.41;5112036;28;20046;-37
2023/11/11 04:41:05;;;;;;;32.83;17.75;;;;;;;7.01;88.40;98801.84;5111198;28;20031;-39
2023/11/11 04:43:34;;;;;;;34.85;17.83;;;;;;;7.12;88.32;98817.13;5096361;28;20431;-38
2023/11/11 04:46:01;;;;;;;31.80;17.90;;;;;;;7.11;88.46;98796.97;5118463;27;20032;-39
2023/11/11 04:48:26;;;;;;;32.25;17.45;;;;;;;7.16;88.57;98789.25;5123181;27;20712;-38
2023/11/11 04:50:52;;;;;;;28.33;16.40;;;;;;;7.01;88.50;98784.16;5132007;27;20023;-37
2023/11/11 04:53:17;;;;;;;36.25;17.10;;;;;;;6.92;89.51;98777.44;5132427;27;20532;-39
2023/11/11 04:55:43;;;;;;;32.90;18.00;;;;;;;6.90;90.05;98765.44;5131998;27;20031;-40
2023/11/11 04:58:09;;;;;;;33.22;18.60;;;;;;;7.02;89.95;98751.38;5132328;27;20057;-39
2023/11/11 05:00:36;;;;;;;31.55;17.83;;;;;;;7.12;87.57;98748.34;5121989;27;20030;-38
2023/11/11 05:03:01;;;;;;;32.65;17.63;;;;;;;7.15;88.31;98760.34;5118318;27;20022;-39
2023/11/11 05:05:26;;;;;;;29.95;18.00;;;;;;;6.97;88.41;98745.91;5122372;27;20367;-39
2023/11/11 05:07:53;;;;;;;31.58;17.50;;;;;;;6.98;88.72;98750.16;5119752;27;20459;-39
2023/11/11 05:10:19;;;;;;;30.52;17.33;;;;;;;6.91;89.98;98749.38;5122245;27;20554;-41
2023/11/11 05:12:47;;;;;;;35.80;19.00;;;;;;;6.70;90.42;98750.38;5116758;27;20056;-39
2023/11/11 05:15:15;;;;;;;32.55;17.73;;;;;;;6.83;90.61;98754.84;5132489;27;20123;-41
2023/11/11 05:17:42;;;;;;;34.38;18.65;;;;;;;6.68;90.80;98751.56;5132544;27;20027;-42
2023/11/11 05:20:10;;;;;;;32.85;18.52;;;;;;;6.73;90.93;98752.59;5132260;27;20023;-36
2023/11/11 05:22:36;;;;;;;32.63;18.30;;;;;;;9.12;100.00;98762.47;5132498;28;20023;-39
2023/11/11 05:25:02;;;;;;;33.78;19.25;;;;;;;9.88;99.44;98769.25;5132379;28;20030;-38
2023/11/11 05:27:27;;;;;;;31.60;18.48;;;;;;;10.68;90.76;98770.06;5132404;28;20038;-38
2023/11/11 05:29:53;;;;;;;31.60;17.73;;;;;;;11.20;84.29;98764.13;5132430;28;20097;-40
2023/11/11 05:32:18;;;;;;;29.73;16.83;;;;;;;11.88;85.65;98757.31;5132262;28;20623;-37
2023/11/11 05:34:44;;;;;;;29.80;17.33;;;;;;;12.58;84.66;98768.81;5132317;28;20030;-38
2023/11/11 05:37:10;;;;;;;26.33;16.08;;;;;;;13.03;75.54;98759.94;5132189;28;20106;-39
2023/11/11 05:39:36;;;;;;;24.55;15.68;;;;;;;13.11;70.73;98763.00;5132600;28;20090;-39
2023/11/11 05:42:02;;;;;;;25.75;15.75;;;;;;;13.37;67.96;98759.97;5119893;28;20601;-39
2023/11/11 05:44:28;;;;;;;29.15;16.20;;;;;;;13.30;65.54;98760.13;5110941;28;20019;-39
2023/11/11 05:46:53;;;;;;;25.42;16.15;;;;;;;13.16;65.15;98753.47;5110871;28;20044;-41
2023/11/11 05:49:19;;;;;;;25.98;16.88;;;;;;;13.00;64.51;98728.38;5111084;28;20023;-39
2023/11/11 05:51:45;;;;;;;25.38;16.52;;;;;;;12.48;64.80;98740.09;5110800;28;20019;-40
2023/11/11 05:54:11;;;;;;;26.27;16.70;;;;;;;12.07;66.83;98744.66;5110889;28;20024;-41
2023/11/11 05:56:40;;;;;;;31.00;16.08;;;;;;;12.10;65.32;98726.31;5111101;28;20051;-41
2023/11/11 05:59:06;;;;;;;25.83;15.65;;;;;;;12.03;65.87;98722.19;5111102;28;20146;-39
2023/11/11 06:01:32;;;;;;;26.83;16.13;;;;;;;12.18;65.52;98740.34;5110854;28;20504;-40
2023/11/11 06:03:57;;;;;;;26.45;15.48;;;;;;;11.57;67.27;98751.34;5110960;28;20016;-40
2023/11/11 06:06:23;;;;;;;26.75;16.48;;;;;;;11.72;67.13;98764.19;5110875;28;20012;-41
2023/11/11 06:08:49;;;;;;;23.80;15.55;;;;;;;11.71;66.82;98768.72;5110797;28;20499;-38
2023/11/11 06:11:15;;;;;;;27.27;15.60;;;;;;;11.23;67.88;98780.47;5111165;28;20018;-40
2023/11/11 06:13:41;;;;;;;26.73;15.80;;;;;;;11.24;68.37;98766.09;5110790;28;20028;-40
2023/11/11 06:16:07;;;;;;;25.50;15.27;;;;;;;11.12;69.37;98763.44;5110539;28;20044;-40
2023/11/11 06:18:32;;;;;;;26.38;15.73;;;;;;;11.13;69.18;98759.72;5110237;28;20102;-40
2023/11/11 06:20:59;;;;;;;26.30;15.55;;;;;;;11.08;68.85;98756.13;5110287;28;20020;-40
2023/11/11 06:23:25;;;;;;;29.92;17.20;;;;;;;11.11;69.77;98768.97;5113700;28;20024;-40
2023/11/11 06:25:50;;;;;;;30.55;17.40;;;;;;;11.24;68.35;98751.97;5114479;28;20020;-40
2023/11/11 06:28:16;;;;;;;26.42;16.40;;;;;;;11.01;68.80;98737.59;5114511;28;20538;-39
2023/11/11 06:30:42;;;;;;;25.52;15.13;;;;;;;11.03;68.56;98732.06;5114535;28;20582;-40
2023/11/11 06:33:07;;;;;;;23.38;14.45;;;;;;;11.00;69.27;98729.84;5114632;28;20048;-39
2023/11/11 06:35:34;;;;;;;22.88;14.70;;;;;;;11.27;67.97;98739.00;5114166;28;20026;-41
2023/11/11 06:37:59;;;;;;;25.83;15.55;;;;;;;11.22;67.17;98746.88;5114144;28;20031;-41
2023/11/11 06:40:26;;;;;;;28.15;15.52;;;;;;;11.20;68.02;98756.16;5114431;28;20030;-41
2023/11/11 06:42:55;;;;;;;27.40;15.65;;;;;;;11.31;67.79;98750.81;5114490;28;20066;-39
2023/11/11 06:45:20;;;;;;;26.13;14.23;;;;;;;11.17;69.87;98736.09;5114167;28;20072;-41
2023/11/11 06:47:46;;;;;;;30.33;15.57;;;;;;;11.23;72.38;98740.53;5114307;28;20047;-40
2023/11/11 06:50:14;;;;;;;21.85;13.95;;;;;;;11.42;68.15;98721.72;5114393;28;20028;-40
2023/11/11 06:52:40;;;;;;;22.73;13.50;;;;;;;11.03;69.14;98726.72;5114328;28;20023;-40
2023/11/11 06:55:09;;;;;;;23.40;14.32;;;;;;;10.94;69.29;98739.56;5114055;28;20593;-41
2023/11/11 06:57:34;;;;;;;31.17;18.23;;;;;;;10.77;70.36;98734.09;5113756;28;20020;-40
2023/11/11 07:00:00;;;;;;;27.30;15.48;;;;;;;10.79;70.74;98740.00;5113415;28;20026;-42
2023/11/11 07:02:25;;;;;;;24.63;15.57;;;;;;;10.88;70.98;98733.31;5113238;28;20019;-42
2023/11/11 07:04:54;;;;;;;30.55;16.15;;;;;;;10.96;70.52;98748.94;5113613;28;20051;-40
2023/11/11 07:07:22;;;;;;;27.33;15.90;;;;;;;11.12;70.23;98758.09;5112265;28;20693;-38
2023/11/11 07:09:51;;;;;;;27.75;15.75;;;;;;;11.44;69.04;98771.09;5111957;28;20020;-40
2023/11/11 07:12:18;;;;;;;24.38;14.80;;;;;;;11.66;68.54;98781.13;5111596;28;20110;-39
2023/11/11 07:14:45;;;;;;;21.85;13.77;;;;;;;11.05;69.75;98796.53;5110931;28;20012;-40
2023/11/11 07:17:11;;;;;;;24.95;14.18;;;;;;;11.06;68.76;98777.69;5104234;28;20034;-39
2023/11/11 07:19:37;;;;;;;23.30;13.10;;;;;;;10.60;70.51;98773.06;5093856;28;20027;-41
2023/11/11 07:22:03;;;;;;;23.02;14.38;;;;;;;10.30;71.78;98765.84;5100117;28;20024;-40
2023/11/11 07:24:28;;;;;;;22.75;14.77;;;;;;;10.41;71.66;98773.09;5098254;28;20109;-39
2023/11/11 07:26:54;;;;;;;24.70;13.90;;;;;;;10.43;71.13;98773.69;5097947;28;20114;-40
2023/11/11 07:29:20;;;;;;;25.20;14.32;;;;;;;10.81;69.58;98758.41;5095101;28;20032;-41
2023/11/11 07:31:46;;;;;;;29.95;14.93;;;;;;;10.00;72.92;98753.38;5105041;28;20016;-41
2023/11/11 07:34:13;;;;;;;25.08;14.00;;;;;;;9.96;73.66;98746.88;5112024;28;20031;-41
2023/11/11 07:36:38;;;;;;;24.67;14.48;;;;;;;9.81;74.68;98749.91;5112630;28;20027;-41
2023/11/11 07:39:06;;;;;;;22.23;13.05;;;;;;;10.24;73.06;98751.59;5111725;28;20045;-38
2023/11/11 07:41:31;;;;;;;24.23;13.05;;;;;;;10.54;72.31;98743.66;5111708;28;20053;-41
2023/11/11 07:44:04;;;;;;;23.20;14.00;;;;;;;10.57;72.42;98748.53;5112126;28;20131;-40
2023/11/11 07:46:29;;;;;;;26.25;14.02;;;;;;;10.50;72.64;98760.31;5111596;28;20019;-42
2023/11/11 07:48:55;;;;;;;23.42;13.77;;;;;;;10.63;73.14;98759.31;5111123;28;20034;-41
2023/11/11 07:51:22;;;;;;;24.25;13.15;;;;;;;10.93;72.59;98746.75;5110876;28;20027;-40
2023/11/11 07:53:48;;;;;;;24.92;13.43;;;;;;;10.67;72.72;98750.63;5111639;28;20110;-41
2023/11/11 07:56:13;;;;;;;21.80;13.75;;;;;;;10.48;74.06;98749.09;5111824;28;20059;-43
2023/11/11 07:58:39;;;;;;;22.75;13.43;;;;;;;10.62;73.82;98739.84;5111485;28;20062;-40
2023/11/11 08:01:06;;;;;;;26.13;14.13;;;;;;;10.71;74.33;98719.06;5111737;28;20038;-41
2023/11/11 08:03:34;;;;;;;24.10;13.07;;;;;;;11.05;73.69;98722.00;5111629;28;20023;-41
2023/11/11 08:05:59;;;;;;;23.42;13.70;;;;;;;11.25;72.91;98716.28;5111323;28;20027;-41
2023/11/11 08:08:26;;;;;;;30.83;16.50;;;;;;;11.41;72.20;98686.28;5111496;28;20027;-40
2023/11/11 08:10:54;;;;;;;25.13;14.13;;;;;;;11.50;71.45;98686.75;5111622;28;20027;-42
2023/11/11 08:13:19;;;;;;;28.13;15.88;;;;;;;11.64;72.12;98673.97;5111311;28;20471;-43
2023/11/11 08:15:45;;;;;;;25.85;15.45;;;;;;;10.86;74.65;98684.81;5111985;28;20020;-40
2023/11/11 08:18:10;;;;;;;25.58;16.92;;;;;;;11.20;74.12;98684.25;5111262;28;20030;-40
2023/11/11 08:20:35;;;;;;;25.85;15.00;;;;;;;11.49;73.47;98704.56;5111247;28;20019;-41
2023/11/11 08:23:02;;;;;;;26.17;14.55;;;;;;;11.63;72.29;98721.13;5111089;28;20028;-40
2023/11/11 08:25:28;;;;;;;22.00;14.60;;;;;;;11.51;73.15;98694.50;5111061;28;20029;-43
2023/11/11 08:27:55;;;;;;;21.50;14.48;;;;;;;11.53;73.90;98707.59;5111235;28;20031;-41
2023/11/11 08:30:22;;;;;;;22.50;13.80;;;;;;;11.54;73.11;98706.56;5111090;28;20034;-42
2023/11/11 08:32:48;;;;;;;25.60;14.10;;;;;;;11.65;73.45;98702.22;5111134;28;20036;-42
2023/11/11 08:35:15;;;;;;;24.65;14.32;;;;;;;11.74;72.63;98688.28;5111122;28;20049;-42
2023/11/11 08:37:43;;;;;;;24.35;14.25;;;;;;;11.82;72.33;98686.31;5111343;28;20078;-41
2023/11/11 08:40:10;;;;;;;23.40;14.00;;;;;;;11.93;72.03;98680.16;5111068;28;20019;-40
2023/11/11 08:42:36;;;;;;;21.60;14.82;;;;;;;11.97;71.64;98681.28;5111116;28;20440;-41
2023/11/11 08:45:01;;;;;;;23.08;14.88;;;;;;;11.84;73.16;98692.19;5110788;28;20027;-41
2023/11/11 08:47:27;;;;;;;24.27;14.82;;;;;;;11.73;73.94;98702.66;5111727;28;20123;-44
2023/11/11 08:49:54;;;;;;;24.73;14.63;;;;;;;11.69;73.71;98712.19;5112589;28;20498;-40
2023/11/11 08:52:22;;;;;;;26.33;15.23;;;;;;;11.29;76.37;98696.97;5112349;28;20051;-41
2023/11/11 08:54:47;;;;;;;25.83;16.00;;;;;;;11.54;75.36;98685.22;5111836;28;20023;-40
2023/11/11 08:57:13;;;;;;;26.83;15.52;;;;;;;11.78;73.29;98663.84;5111769;28;20024;-41
2023/11/11 08:59:38;;;;;;;26.48;15.30;;;;;;;11.40;74.95;98638.56;5111981;28;20023;-41
2023/11/11 09:02:04;;;;;;;24.73;15.73;;;;;;;10.89;77.94;98607.19;5111636;28;20027;-41
2023/11/11 09:04:29;;;;;;;29.63;16.40;;;;;;;10.39;80.85;98562.41;5112010;28;20081;-40
2023/11/11 09:06:56;;;;;;;30.67;16.77;;;;;;;9.83;83.83;98505.25;5111549;28;20439;-42
2023/11/11 09:09:21;;;;;;;37.05;19.25;;;;;;;9.71;85.17;98487.44;5111697;28;20047;-43
2023/11/11 09:11:47;;;;;;;36.75;20.13;;;;;;;9.66;84.97;98481.19;5111578;28;20062;-41
2023/11/11 09:14:13;;;;;;;29.63;17.95;;;;;;;8.88;88.29;98435.13;5111680;28;20107;-40
2023/11/11 09:16:38;;;;;;;31.45;17.92;;;;;;;8.78;90.16;98419.75;5111259;28;20047;-41
2023/11/11 09:19:04;;;;;;;32.13;18.30;;;;;;;9.17;88.78;98430.84;5111249;28;20027;-42
2023/11/11 09:21:31;;;;;;;28.98;16.58;;;;;;;9.28;87.60;98446.00;5111504;28;20487;-42
2023/11/11 09:23:57;;;;;;;30.65;17.95;;;;;;;9.44;88.27;98484.34;5111340;28;20399;-41
2023/11/11 09:26:24;;;;;;;30.38;17.75;;;;;;;9.93;86.19;98502.81;5111263;28;20102;-41
2023/11/11 09:28:50;;;;;;;31.45;17.88;;;;;;;10.18;84.53;98495.47;5111777;28;20019;-41
2023/11/11 09:31:16;;;;;;;30.45;17.35;;;;;;;10.03;85.15;98481.78;5111741;28;20036;-40
2023/11/11 09:33:48;;;;;;;31.33;18.55;;;;;;;10.40;83.88;98502.88;5111134;28;20072;-41
2023/11/11 09:36:13;;;;;;;30.10;17.83;;;;;;;10.76;82.67;98516.94;5111450;28;20047;-43
2023/11/11 09:38:40;;;;;;;31.13;18.15;;;;;;;10.92;81.02;98526.84;5111237;28;20123;-43
2023/11/11 09:41:06;;;;;;;30.15;17.13;;;;;;;10.80;80.52;98530.59;5111090;28;20069;-41
2023/11/11 09:43:32;;;;;;;28.92;17.38;;;;;;;10.94;81.63;98540.72;5111594;28;20409;-43
2023/11/11 09:46:02;;;;;;;31.83;17.83;;;;;;;10.20;84.79;98491.75;5111257;28;20433;-43
2023/11/11 09:48:28;;;;;;;32.30;18.23;;;;;;;10.17;85.27;98477.09;5111245;28;20112;-40
2023/11/11 09:50:54;;;;;;;32.08;18.77;;;;;;;10.52;84.92;98508.19;5110988;28;20410;-44
2023/11/11 09:53:19;;;;;;;34.60;20.10;;;;;;;11.07;82.32;98530.88;5110824;28;20019;-43
2023/11/11 09:55:46;;;;;;;33.78;18.65;;;;;;;11.38;81.21;98547.44;5111102;28;20042;-41
2023/11/11 09:58:13;;;;;;;33.40;19.08;;;;;;;11.69;79.87;98548.78;5113873;28;20037;-41
2023/11/11 10:00:38;;;;;;;32.15;20.25;;;;;;;11.93;79.16;98509.53;5115109;28;20057;-40
2023/11/11 10:03:04;;;;;;;32.38;19.50;;;;;;;11.71;79.00;98504.09;5115189;28;20028;-41
2023/11/11 10:05:30;;;;;;;33.83;19.83;;;;;;;12.03;78.05;98501.72;5115328;27;20027;-40
2023/11/11 10:07:56;;;;;;;34.03;21.27;;;;;;;11.53;80.58;98470.47;5115311;28;20103;-42
2023/11/11 10:10:22;;;;;;;35.55;21.55;;;;;;;11.99;79.67;98473.88;5115243;28;20107;-41
2023/11/11 10:12:47;;;;;;;36.67;21.90;;;;;;;12.31;78.36;98431.41;5115097;28;20026;-42
2023/11/11 10:15:14;;;;;;;36.63;21.70;;;;;;;11.60;80.63;98470.31;5115026;28;20120;-41
2023/11/11 10:17:40;;;;;;;35.25;22.05;;;;;;;12.07;79.32;98512.66;5115186;27;20053;-39
2023/11/11 10:20:17;;;;;;;40.70;22.70;;;;;;;11.93;79.43;98506.84;5114861;27;20023;-40
2023/11/11 10:22:49;;;;;;;37.03;21.40;;;;;;;11.88;78.95;98485.41;5114834;28;20031;-40
2023/11/11 10:25:17;;;;;;;35.80;22.45;;;;;;;11.85;78.24;98460.06;5115506;28;20122;-40
2023/11/11 10:27:55;;;;;;;38.03;24.65;;;;;;;11.51;80.39;98459.25;5115307;28;20050;-41
2023/11/11 10:30:23;;;;;;;35.95;22.55;;;;;;;11.73;79.63;98467.34;5114726;28;20020;-40
2023/11/11 10:32:49;;;;;;;40.78;22.70;;;;;;;11.65;80.63;98449.06;5114605;28;20027;-39
2023/11/11 10:35:17;;;;;;;34.10;22.42;;;;;;;12.06;78.70;98458.53;5115020;28;20024;-40
2023/11/11 10:37:42;;;;;;;39.05;22.92;;;;;;;12.17;75.87;98461.38;5114306;28;20024;-41
2023/11/11 10:40:09;;;;;;;38.78;22.92;;;;;;;11.97;76.68;98445.88;5114348;28;20124;-41
2023/11/11 10:42:35;;;;;;;38.20;23.40;;;;;;;12.09;76.99;98446.59;5114263;28;20024;-41
2023/11/11 10:45:02;;;;;;;38.03;24.30;;;;;;;12.34;76.88;98406.13;5114440;28;20084;-41
2023/11/11 10:47:29;;;;;;;44.00;26.38;;;;;;;12.49;76.85;98403.66;5113434;28;20059;-41
2023/11/11 10:49:57;;;;;;;49.28;29.33;;;;;;;12.62;75.30;98394.47;5114296;28;20035;-40
2023/11/11 10:52:24;;;;;;;48.10;30.10;;;;;;;12.76;75.01;98378.06;5114393;28;20031;-42
2023/11/11 10:54:52;;;;;;;46.47;28.80;;;;;;;13.28;72.81;98380.94;5114195;28;20016;-40
2023/11/11 10:57:18;;;;;;;45.30;27.40;;;;;;;13.54;70.88;98383.06;5114363;28;20491;-40
2023/11/11 10:59:44;;;;;;;43.53;27.40;;;;;;;13.49;71.19;98384.63;5113698;28;20020;-41
2023/11/11 11:02:11;;;;;;;49.28;28.58;;;;;;;13.77;69.59;98376.56;5114222;28;20027;-40
2023/11/11 11:04:44;;;;;;;49.17;30.75;;;;;;;13.71;71.93;98374.88;5113746;28;20026;-40
2023/11/11 11:07:16;;;;;;;47.88;30.75;;;;;;;13.80;71.08;98359.97;5113718;28;20103;-40
2023/11/11 11:10:08;;;;;;;47.78;30.55;;;;;;;13.57;73.50;98359.28;5113881;28;20410;-41
2023/11/11 11:12:52;;;;;;;37.70;24.83;;;;;;;13.85;71.57;98358.16;5113350;28;20495;-41
2023/11/11 11:15:19;;;;;;;37.10;23.52;;;;;;;14.03;69.53;98348.06;5113609;28;20080;-40
2023/11/11 11:17:51;;;;;;;38.90;25.10;;;;;;;14.22;71.07;98368.00;5113937;28;20116;-41